Time;durP1;ratioP1;P1;durP2;ratioP2;P2;SDS_P1;SDS_P2;PMS_P1;PMS_P2;Temp;Humidity;BMP_temperature;BMP_pressure;BME280_temperature;BME280_humidity;BME280_pressure;Samples;Min_cycle;Max_cycle;Signal;HPM_P1;HPM_P2
2021/04/04 11:57:42;;;;;;;9.82;4.35;;;10.80;66.20;;;;;;4974669;28;20050;-65
2021/04/04 12:00:25;;;;;;;6.53;3.33;;;10.90;66.00;;;;;;4991423;28;20030;-64
2021/04/04 12:03:00;;;;;;;7.05;3.47;;;11.10;66.40;;;;;;4985204;28;20022;-65
2021/04/04 12:05:31;;;;;;;8.00;3.42;;;11.20;66.30;;;;;;4993339;28;20386;-69
2021/04/04 12:07:57;;;;;;;12.37;4.17;;;11.30;65.80;;;;;;4993954;28;20101;-69
2021/04/04 12:10:35;;;;;;;8.38;3.92;;;11.40;65.60;;;;;;4993714;28;20025;-71
2021/04/04 12:13:01;;;;;;;8.35;4.50;;;11.50;65.00;;;;;;4994143;28;20026;-70
2021/04/04 12:15:28;;;;;;;10.52;3.60;;;11.50;65.10;;;;;;4994078;28;20045;-69
2021/04/04 12:18:01;;;;;;;9.40;4.10;;;11.70;64.70;;;;;;4992511;28;20019;-70
2021/04/04 12:20:33;;;;;;;11.85;4.30;;;11.80;64.30;;;;;;4992686;28;20482;-69
2021/04/04 12:22:59;;;;;;;12.35;5.63;;;11.90;63.90;;;;;;4993737;28;20041;-68
2021/04/04 12:25:26;;;;;;;9.10;4.40;;;12.00;63.50;;;;;;4992760;28;20112;-70
2021/04/04 12:27:58;;;;;;;9.57;4.35;;;12.10;63.30;;;;;;4993767;28;20022;-71
2021/04/04 12:30:31;;;;;;;11.80;4.90;;;12.10;62.70;;;;;;4993152;28;20495;-69
2021/04/04 12:33:15;;;;;;;9.05;4.32;;;12.20;63.40;;;;;;4992058;28;20018;-66
2021/04/04 12:35:41;;;;;;;12.77;5.15;;;12.20;62.80;;;;;;4994686;28;20030;-69
2021/04/04 12:38:07;;;;;;;8.27;5.00;;;12.20;63.10;;;;;;4993229;28;20022;-68
2021/04/04 12:40:34;;;;;;;14.07;5.22;;;12.20;62.90;;;;;;4993270;28;20533;-67
2021/04/04 12:43:02;;;;;;;11.70;5.53;;;12.10;62.80;;;;;;4992398;28;20031;-68
2021/04/04 12:45:36;;;;;;;12.05;5.20;;;12.10;62.50;;;;;;4992996;28;20030;-69
2021/04/04 12:48:28;;;;;;;11.93;5.72;;;12.10;62.90;;;;;;4992787;28;20109;-67
2021/04/04 12:50:57;;;;;;;9.10;5.32;;;12.10;62.30;;;;;;4991839;28;20426;-67
2021/04/04 12:53:26;;;;;;;9.05;5.13;;;12.10;62.50;;;;;;4993177;28;20034;-66
2021/04/04 12:55:52;;;;;;;9.20;5.00;;;12.20;62.30;;;;;;4993804;28;20083;-66
2021/04/04 12:58:18;;;;;;;9.95;5.05;;;12.30;61.70;;;;;;4994187;28;20382;-67
2021/04/04 13:00:46;;;;;;;12.77;6.30;;;12.30;61.00;;;;;;4993171;28;20030;-66
2021/04/04 13:03:17;;;;;;;10.82;5.80;;;12.30;61.60;;;;;;4993957;28;20084;-66
2021/04/04 13:05:45;;;;;;;11.40;5.70;;;12.50;60.10;;;;;;4993864;28;20029;-66
2021/04/04 13:08:20;;;;;;;8.10;5.38;;;12.60;60.50;;;;;;4993430;28;20027;-67
2021/04/04 13:10:58;;;;;;;12.55;5.22;;;12.60;60.40;;;;;;4993827;28;20367;-67
2021/04/04 13:13:29;;;;;;;9.88;4.88;;;12.60;61.10;;;;;;4992492;28;20031;-67
2021/04/04 13:16:03;;;;;;;11.32;4.75;;;12.50;60.80;;;;;;4993876;28;20030;-67
2021/04/04 13:18:31;;;;;;;12.60;5.32;;;12.60;61.80;;;;;;4993948;28;20031;-67
2021/04/04 13:21:00;;;;;;;13.23;5.05;;;12.60;62.00;;;;;;4993122;28;20038;-68
2021/04/04 13:23:26;;;;;;;9.35;5.10;;;12.70;61.80;;;;;;4993769;28;20014;-67
2021/04/04 13:25:52;;;;;;;10.55;5.25;;;12.80;61.60;;;;;;4993312;28;20116;-67
2021/04/04 13:28:32;;;;;;;9.10;4.72;;;12.80;60.50;;;;;;4991707;28;20097;-67
2021/04/04 13:31:22;;;;;;;11.60;5.20;;;12.70;60.70;;;;;;4993355;28;20034;-66
2021/04/04 13:34:02;;;;;;;8.88;5.00;;;12.80;60.70;;;;;;4993484;28;20077;-66
2021/04/04 13:36:27;;;;;;;13.93;5.65;;;12.90;60.60;;;;;;4992907;28;20058;-66
2021/04/04 13:38:53;;;;;;;11.90;5.78;;;12.90;60.50;;;;;;4993185;28;20169;-65
2021/04/04 13:41:19;;;;;;;12.80;6.78;;;12.70;60.50;;;;;;4993644;28;20014;-66
2021/04/04 13:43:53;;;;;;;12.27;6.00;;;12.60;61.00;;;;;;4992529;28;20045;-66
2021/04/04 13:46:39;;;;;;;11.05;5.30;;;12.50;60.40;;;;;;4993283;28;20030;-66
2021/04/04 13:49:07;;;;;;;11.23;6.20;;;12.50;61.50;;;;;;4991065;28;20022;-66
2021/04/04 13:51:35;;;;;;;9.93;5.50;;;12.40;61.40;;;;;;4993687;28;20061;-67
2021/04/04 13:54:03;;;;;;;11.18;5.60;;;12.40;61.60;;;;;;4993201;28;20034;-66
2021/04/04 13:56:50;;;;;;;13.27;6.35;;;12.40;61.30;;;;;;4992534;28;20109;-66
2021/04/04 13:59:20;;;;;;;11.73;6.22;;;12.40;61.60;;;;;;4993430;28;20027;-66
2021/04/04 14:01:50;;;;;;;14.35;6.70;;;12.50;62.50;;;;;;4993157;28;20030;-67
2021/04/04 14:04:22;;;;;;;10.32;5.82;;;12.60;62.20;;;;;;4992782;28;20113;-67
2021/04/04 14:07:02;;;;;;;10.10;5.72;;;12.70;61.10;;;;;;4993110;28;20026;-66
2021/04/04 14:09:39;;;;;;;13.73;6.63;;;12.60;61.00;;;;;;4993309;28;20430;-67
2021/04/04 14:12:07;;;;;;;11.90;6.85;;;12.40;62.00;;;;;;4992398;28;20026;-66
2021/04/04 14:14:33;;;;;;;11.95;6.60;;;12.40;61.80;;;;;;4994047;28;20117;-67
2021/04/04 14:17:00;;;;;;;12.65;7.72;;;12.30;62.10;;;;;;4994887;28;20541;-65
2021/04/04 14:19:26;;;;;;;13.50;7.95;;;12.30;62.00;;;;;;4997175;28;20023;-65
2021/04/04 14:21:53;;;;;;;16.58;9.35;;;12.30;62.00;;;;;;4996791;28;20026;-67
2021/04/04 14:24:19;;;;;;;13.20;8.60;;;12.40;61.50;;;;;;4996261;28;20483;-66
2021/04/04 14:26:44;;;;;;;13.70;8.98;;;12.40;61.30;;;;;;4996620;28;20023;-67
2021/04/04 14:29:11;;;;;;;15.50;9.65;;;12.40;61.10;;;;;;4997045;28;20029;-67
2021/04/04 14:31:37;;;;;;;16.67;10.57;;;12.30;62.70;;;;;;4996066;28;20501;-68
2021/04/04 14:34:03;;;;;;;16.35;10.40;;;12.30;62.30;;;;;;4996590;28;20061;-66
2021/04/04 14:36:30;;;;;;;15.02;9.95;;;12.30;61.70;;;;;;4996424;28;20017;-68
2021/04/04 14:38:55;;;;;;;17.23;10.90;;;12.40;61.80;;;;;;4982117;28;20705;-71
2021/04/04 14:41:21;;;;;;;12.32;9.02;;;12.50;62.00;;;;;;4992796;28;20029;-67
2021/04/04 14:46:23;;;;;;;15.57;8.25;;;12.60;60.90;;;;;;4975832;28;20035;-67
2021/04/04 14:48:49;;;;;;;13.73;7.82;;;12.60;60.80;;;;;;4973628;28;20780;-66
2021/04/04 14:51:14;;;;;;;13.77;8.93;;;12.60;61.80;;;;;;4974453;28;20471;-67
2021/04/04 14:53:40;;;;;;;14.55;7.85;;;12.60;61.30;;;;;;4991435;28;20045;-70
2021/04/04 14:56:07;;;;;;;12.70;7.95;;;12.60;61.70;;;;;;4991717;28;20050;-69
2021/04/04 14:58:34;;;;;;;13.10;8.15;;;12.50;61.40;;;;;;4991707;28;20030;-69
2021/04/04 15:01:00;;;;;;;16.67;8.48;;;12.30;62.00;;;;;;4991472;28;20105;-70
2021/04/04 15:03:26;;;;;;;14.90;8.20;;;12.20;62.40;;;;;;4991391;28;20088;-68
2021/04/04 15:05:52;;;;;;;13.32;7.68;;;12.10;62.50;;;;;;4991163;28;20475;-69
2021/04/04 15:08:18;;;;;;;19.20;11.13;;;12.10;62.50;;;;;;4991791;28;20035;-71
2021/04/04 15:10:46;;;;;;;13.70;8.13;;;12.00;62.30;;;;;;4971565;28;20027;-69
2021/04/04 15:13:12;;;;;;;12.35;7.05;;;11.90;63.50;;;;;;4977146;28;20164;-67
2021/04/04 15:15:42;;;;;;;16.58;7.07;;;11.90;63.20;;;;;;4992168;28;20037;-77
2021/04/04 15:18:08;;;;;;;21.58;11.40;;;12.00;63.50;;;;;;4993333;28;20178;-71
2021/04/04 15:20:36;;;;;;;13.95;8.98;;;12.00;63.80;;;;;;4991399;28;20405;-69
2021/04/04 15:23:02;;;;;;;13.75;7.93;;;12.00;63.90;;;;;;4992178;28;20137;-73
2021/04/04 15:25:28;;;;;;;15.05;7.32;;;12.00;63.90;;;;;;4991238;28;20038;-70
2021/04/04 15:27:53;;;;;;;16.05;8.38;;;12.00;63.90;;;;;;4991122;28;20026;-72
2021/04/04 15:30:27;;;;;;;16.63;8.15;;;11.80;63.40;;;;;;4991437;28;20126;-76
2021/04/04 15:33:14;;;;;;;15.32;7.95;;;11.80;64.50;;;;;;4988317;28;20490;-65
2021/04/04 15:35:42;;;;;;;14.45;7.32;;;11.70;64.70;;;;;;4990535;28;20073;-67
2021/04/04 15:38:09;;;;;;;13.32;6.97;;;11.60;65.10;;;;;;4991289;28;20032;-70
2021/04/04 15:40:37;;;;;;;16.63;9.32;;;11.60;65.20;;;;;;4991037;28;20038;-73
2021/04/04 15:43:04;;;;;;;14.57;7.50;;;11.60;65.70;;;;;;4990330;28;20026;-71
2021/04/04 15:45:30;;;;;;;12.85;8.50;;;11.50;65.80;;;;;;4992310;28;20030;-70
2021/04/04 15:48:03;;;;;;;16.00;7.85;;;11.50;65.40;;;;;;4990408;28;20088;-67
2021/04/04 15:50:32;;;;;;;18.52;9.02;;;11.40;66.50;;;;;;4990091;28;20145;-70
2021/04/04 15:52:59;;;;;;;13.57;7.72;;;11.40;66.30;;;;;;4989514;28;20027;-67
2021/04/04 15:55:27;;;;;;;18.40;8.63;;;11.20;66.60;;;;;;4989006;28;20089;-70
2021/04/04 15:57:53;;;;;;;18.63;8.65;;;11.10;66.60;;;;;;4989456;28;20058;-69
2021/04/04 16:00:21;;;;;;;15.93;8.60;;;11.10;66.80;;;;;;4991143;28;20034;-69
2021/04/04 16:02:47;;;;;;;16.27;8.35;;;11.10;66.70;;;;;;4988360;28;20048;-70
2021/04/04 16:05:13;;;;;;;17.85;10.55;;;11.10;67.10;;;;;;4990032;28;20700;-68
2021/04/04 16:07:39;;;;;;;16.75;7.47;;;11.10;66.70;;;;;;4991193;28;20097;-68
2021/04/04 16:10:33;;;;;;;12.27;7.28;;;11.00;67.00;;;;;;4988363;28;20426;-69
2021/04/04 16:12:59;;;;;;;13.98;6.90;;;11.00;67.30;;;;;;4990354;28;20041;-70
2021/04/04 16:15:28;;;;;;;10.27;6.55;;;11.10;67.10;;;;;;4989893;28;20490;-70
2021/04/04 16:17:54;;;;;;;15.45;7.30;;;11.10;66.90;;;;;;4989762;28;20446;-70
2021/04/04 16:20:24;;;;;;;13.85;7.00;;;11.10;66.70;;;;;;4990971;28;20068;-71
2021/04/04 16:22:50;;;;;;;13.07;7.35;;;11.10;67.10;;;;;;4974956;28;20023;-70
2021/04/04 16:25:15;;;;;;;13.35;7.22;;;11.10;67.30;;;;;;4971214;28;20034;-71
2021/04/04 16:27:41;;;;;;;15.35;7.18;;;11.00;67.30;;;;;;4971380;28;20026;-69
2021/04/04 16:30:08;;;;;;;12.18;7.13;;;11.00;67.50;;;;;;4971758;28;20483;-69
2021/04/04 16:32:34;;;;;;;12.18;6.40;;;10.90;67.40;;;;;;4973016;28;20034;-68
2021/04/04 16:34:59;;;;;;;14.25;6.53;;;10.90;68.00;;;;;;4990541;28;20038;-69
2021/04/04 16:37:26;;;;;;;13.13;6.43;;;10.90;68.00;;;;;;4988910;28;20022;-69
2021/04/04 16:39:52;;;;;;;9.18;6.00;;;10.90;67.80;;;;;;4989282;28;20034;-71
2021/04/04 16:42:17;;;;;;;16.83;6.60;;;11.00;67.80;;;;;;4981487;28;20089;-71
2021/04/04 16:44:43;;;;;;;14.18;6.22;;;10.80;68.20;;;;;;4970513;28;20414;-75
2021/04/04 16:47:09;;;;;;;10.45;6.13;;;10.80;68.10;;;;;;4961000;28;20540;-69
2021/04/04 16:49:35;;;;;;;13.05;6.28;;;10.90;68.40;;;;;;4988640;28;20080;-71
2021/04/04 16:52:01;;;;;;;9.95;6.50;;;10.90;68.60;;;;;;4988578;28;20030;-71
2021/04/04 16:54:27;;;;;;;12.38;6.35;;;10.90;68.50;;;;;;4989887;28;20387;-70
2021/04/04 16:56:52;;;;;;;11.63;6.32;;;10.80;68.30;;;;;;4988964;28;20065;-71
2021/04/04 16:59:18;;;;;;;11.15;6.72;;;10.80;68.50;;;;;;4988041;28;20053;-71
2021/04/04 17:01:43;;;;;;;11.27;7.30;;;10.70;68.80;;;;;;4987825;28;20062;-71
2021/04/04 17:04:09;;;;;;;11.18;7.53;;;10.50;69.80;;;;;;4975811;28;20037;-70
2021/04/04 17:06:34;;;;;;;11.48;7.70;;;10.40;70.20;;;;;;4980993;28;20030;-72
2021/04/04 17:09:00;;;;;;;14.75;9.00;;;10.30;70.50;;;;;;4970524;28;20074;-72
2021/04/04 17:11:26;;;;;;;13.05;10.23;;;10.30;70.70;;;;;;4976938;28;20771;-71
2021/04/04 17:13:52;;;;;;;16.65;12.05;;;10.20;70.90;;;;;;4988921;28;20339;-73
2021/04/04 17:16:19;;;;;;;15.43;11.13;;;10.10;71.10;;;;;;4989169;28;20109;-72
2021/04/04 17:18:44;;;;;;;17.77;11.27;;;10.00;71.50;;;;;;4988152;28;20030;-72
2021/04/04 17:21:10;;;;;;;17.80;11.85;;;10.00;71.60;;;;;;4972076;28;20030;-71
2021/04/04 17:23:36;;;;;;;19.52;13.52;;;10.00;71.50;;;;;;4976527;28;20027;-71
2021/04/04 17:26:01;;;;;;;15.48;11.65;;;9.90;72.00;;;;;;4978155;28;20033;-72
2021/04/04 17:28:27;;;;;;;18.05;13.02;;;9.80;71.90;;;;;;4973310;28;20034;-71
2021/04/04 17:30:53;;;;;;;14.35;12.50;;;9.70;72.10;;;;;;4970363;28;20034;-72
2021/04/04 17:33:18;;;;;;;14.50;12.60;;;9.70;72.30;;;;;;4979952;28;20034;-75
2021/04/04 17:35:44;;;;;;;15.85;13.18;;;9.60;72.80;;;;;;4988967;28;20041;-72
2021/04/04 17:38:10;;;;;;;20.88;15.05;;;9.60;72.90;;;;;;4989369;28;20109;-71
2021/04/04 17:40:36;;;;;;;27.75;20.15;;;9.60;73.20;;;;;;4988792;28;20029;-75
2021/04/04 17:43:02;;;;;;;31.45;16.92;;;9.60;73.40;;;;;;4987779;28;20840;-72
2021/04/04 17:45:27;;;;;;;23.30;14.80;;;9.60;73.80;;;;;;4988660;28;20034;-72
2021/04/04 17:47:53;;;;;;;21.52;14.10;;;9.50;73.70;;;;;;4986856;28;20125;-70
2021/04/04 17:50:20;;;;;;;15.90;11.98;;;9.50;73.90;;;;;;4988854;28;20053;-72
2021/04/04 17:52:47;;;;;;;15.98;11.55;;;9.40;75.00;;;;;;4987797;28;20031;-69
2021/04/04 17:55:14;;;;;;;14.00;11.40;;;9.30;75.30;;;;;;4987857;28;20038;-69
2021/04/04 17:57:40;;;;;;;14.10;9.73;;;9.30;75.70;;;;;;4989279;28;20414;-71
2021/04/04 18:00:08;;;;;;;12.43;8.25;;;9.20;75.70;;;;;;4987338;28;20514;-68
2021/04/04 18:02:34;;;;;;;11.77;8.88;;;9.10;75.50;;;;;;4987921;28;20061;-69
2021/04/04 18:05:04;;;;;;;12.57;8.20;;;9.00;76.00;;;;;;4989341;28;20124;-68
2021/04/04 18:12:40;;;;;;;10.63;6.53;;;8.80;76.50;;;;;;4989324;28;20034;-74
2021/04/04 18:15:07;;;;;;;15.85;7.78;;;8.60;77.20;;;;;;4989379;28;20471;-76
2021/04/04 18:17:32;;;;;;;15.90;7.93;;;8.50;78.10;;;;;;4988220;28;20497;-73
2021/04/04 18:19:58;;;;;;;14.32;9.23;;;8.40;78.50;;;;;;4987088;28;20038;-75
2021/04/04 18:22:24;;;;;;;15.25;9.10;;;8.40;78.70;;;;;;4989444;28;20486;-72
2021/04/04 18:24:49;;;;;;;14.18;7.32;;;8.30;78.80;;;;;;4970311;28;20035;-72
2021/04/04 18:27:15;;;;;;;13.30;7.45;;;8.30;79.10;;;;;;4987819;28;20462;-72
2021/04/04 18:29:41;;;;;;;12.93;6.80;;;8.30;79.30;;;;;;4989369;28;20734;-73
2021/04/04 18:32:07;;;;;;;14.43;6.95;;;8.30;79.50;;;;;;4987338;28;20030;-72
2021/04/04 18:34:33;;;;;;;14.23;7.60;;;8.20;79.60;;;;;;4989227;28;20034;-73
2021/04/04 18:36:59;;;;;;;10.95;6.80;;;8.20;80.00;;;;;;4986509;28;20030;-72
2021/04/04 18:39:24;;;;;;;11.05;7.15;;;8.20;80.10;;;;;;4987406;28;20102;-73
2021/04/04 18:41:50;;;;;;;10.82;7.45;;;8.20;80.10;;;;;;4987069;28;20034;-74
2021/04/04 18:44:16;;;;;;;12.32;6.53;;;8.20;80.30;;;;;;4986156;28;20045;-70
2021/04/04 18:46:41;;;;;;;10.93;7.30;;;8.10;80.80;;;;;;4987903;28;20105;-70
2021/04/04 18:49:07;;;;;;;15.32;8.65;;;8.10;80.30;;;;;;4983901;28;20022;-69
2021/04/04 18:51:33;;;;;;;12.48;9.00;;;8.00;80.30;;;;;;4985371;28;20061;-69
2021/04/04 18:53:58;;;;;;;14.73;8.35;;;8.10;80.40;;;;;;4988160;28;20486;-70
2021/04/04 18:56:24;;;;;;;13.68;7.85;;;8.00;80.40;;;;;;4987443;28;20046;-71
2021/04/04 18:58:50;;;;;;;14.10;8.35;;;8.00;80.90;;;;;;4987872;28;20027;-71
2021/04/04 19:01:16;;;;;;;14.38;8.23;;;7.90;81.10;;;;;;4990013;28;20142;-71
2021/04/04 19:03:41;;;;;;;10.57;7.07;;;7.90;81.40;;;;;;4991600;28;20039;-69
2021/04/04 19:06:07;;;;;;;11.55;6.93;;;7.80;81.30;;;;;;4988136;28;20036;-75
2021/04/04 19:08:35;;;;;;;12.32;8.13;;;7.80;81.60;;;;;;4992066;28;20038;-72
2021/04/04 19:11:03;;;;;;;10.90;6.65;;;7.70;81.70;;;;;;4992421;28;20398;-72
2021/04/04 19:13:30;;;;;;;11.38;6.65;;;7.60;81.80;;;;;;4978836;28;20074;-73
2021/04/04 19:15:57;;;;;;;12.88;7.00;;;7.60;82.30;;;;;;4982406;28;20085;-72
2021/04/04 19:18:24;;;;;;;11.77;6.60;;;7.50;82.30;;;;;;4980526;28;20042;-72
2021/04/04 19:20:49;;;;;;;12.43;7.05;;;7.50;82.50;;;;;;4971646;28;20027;-72
2021/04/04 19:23:15;;;;;;;11.82;7.28;;;7.50;82.80;;;;;;4972423;28;20023;-71
2021/04/04 19:25:40;;;;;;;13.15;6.60;;;7.40;83.00;;;;;;4984899;28;20033;-70
2021/04/04 19:28:06;;;;;;;11.90;6.63;;;7.40;83.20;;;;;;4991174;28;20430;-72
2021/04/04 19:30:31;;;;;;;9.93;6.82;;;7.40;83.20;;;;;;4992308;28;20545;-73
2021/04/04 19:32:57;;;;;;;12.15;7.15;;;7.40;83.50;;;;;;4991584;28;20060;-71
2021/04/04 19:35:23;;;;;;;11.68;7.38;;;7.30;83.60;;;;;;4990485;28;20042;-72
2021/04/04 19:37:49;;;;;;;13.52;7.82;;;7.30;83.80;;;;;;4986353;28;20382;-73
2021/04/04 19:40:16;;;;;;;13.05;7.68;;;7.30;84.00;;;;;;4987133;28;20526;-73
2021/04/04 19:42:43;;;;;;;12.77;7.25;;;7.30;84.10;;;;;;4989620;28;20118;-74
2021/04/04 19:45:09;;;;;;;13.15;7.72;;;7.30;84.10;;;;;;4991225;28;20034;-74
2021/04/04 19:47:35;;;;;;;12.15;6.82;;;7.30;84.10;;;;;;4981143;28;20034;-67
2021/04/04 19:50:02;;;;;;;14.05;7.55;;;7.20;84.20;;;;;;4989721;28;20030;-72
2021/04/04 19:52:28;;;;;;;11.90;7.25;;;7.20;84.30;;;;;;4990926;28;20026;-72
2021/04/04 19:54:56;;;;;;;10.48;7.10;;;7.10;84.60;;;;;;4990925;28;20092;-72
2021/04/04 19:57:22;;;;;;;15.23;7.93;;;7.10;84.70;;;;;;4991437;28;20101;-72
2021/04/04 19:59:47;;;;;;;15.32;7.75;;;7.00;85.00;;;;;;4990839;28;20190;-76
2021/04/04 20:02:13;;;;;;;10.82;7.57;;;7.00;85.30;;;;;;4990352;28;20030;-74
2021/04/04 20:04:38;;;;;;;12.00;7.13;;;7.00;85.30;;;;;;4990446;28;20041;-70
2021/04/04 20:07:04;;;;;;;14.68;7.72;;;7.00;85.40;;;;;;4989730;28;20076;-69
2021/04/04 20:09:30;;;;;;;20.50;10.82;;;7.00;85.50;;;;;;4991137;28;20405;-70
2021/04/04 20:11:58;;;;;;;42.92;30.00;;;7.00;85.70;;;;;;4989958;28;20022;-72
2021/04/04 20:14:24;;;;;;;19.17;13.38;;;7.00;85.90;;;;;;4990844;28;20057;-71
2021/04/04 20:16:51;;;;;;;15.27;9.20;;;7.00;86.20;;;;;;4989644;28;20023;-72
2021/04/04 20:19:16;;;;;;;11.75;8.70;;;6.90;86.20;;;;;;4991287;28;20034;-74
2021/04/04 20:21:42;;;;;;;13.15;7.55;;;6.90;86.30;;;;;;4990463;28;20447;-74
2021/04/04 20:24:10;;;;;;;15.05;9.18;;;6.90;86.50;;;;;;4989749;28;20053;-66
2021/04/04 20:26:35;;;;;;;21.58;10.18;;;6.90;86.70;;;;;;4990941;28;20014;-67
2021/04/04 20:29:01;;;;;;;26.80;15.85;;;6.90;86.80;;;;;;4990554;28;20404;-66
2021/04/04 20:31:27;;;;;;;17.45;10.00;;;6.90;87.00;;;;;;4989943;28;20030;-67
2021/04/04 20:33:54;;;;;;;13.68;8.90;;;6.90;87.00;;;;;;4989060;28;20694;-65
2021/04/04 20:36:27;;;;;;;15.88;9.13;;;6.80;87.10;;;;;;4989135;28;20130;-67
2021/04/04 20:38:53;;;;;;;14.70;8.07;;;6.80;87.40;;;;;;4989495;28;20022;-67
2021/04/04 20:41:18;;;;;;;10.95;7.93;;;6.80;87.50;;;;;;4990912;28;20026;-67
2021/04/04 20:43:45;;;;;;;12.05;7.78;;;6.70;87.50;;;;;;4989502;28;20034;-67
2021/04/04 20:46:11;;;;;;;11.52;7.38;;;6.70;87.90;;;;;;4990929;28;20024;-67
2021/04/04 20:48:36;;;;;;;15.40;7.85;;;6.60;88.10;;;;;;4990087;28;20505;-66
2021/04/04 20:51:02;;;;;;;14.90;8.20;;;6.60;88.30;;;;;;4987866;28;20026;-67
2021/04/04 20:53:27;;;;;;;12.68;10.13;;;6.50;88.30;;;;;;4990162;28;20030;-67
2021/04/04 20:55:53;;;;;;;15.30;8.57;;;6.50;88.50;;;;;;4990624;28;20134;-68
2021/04/04 20:58:19;;;;;;;17.73;8.60;;;6.40;88.80;;;;;;4989051;28;20491;-67
2021/04/04 21:00:45;;;;;;;27.27;16.05;;;6.40;88.90;;;;;;4989847;28;20058;-66
2021/04/04 21:03:11;;;;;;;15.07;9.48;;;6.40;89.30;;;;;;4989804;28;20022;-68
2021/04/04 21:05:37;;;;;;;13.25;8.57;;;6.40;89.40;;;;;;4989369;28;20092;-66
2021/04/04 21:08:03;;;;;;;13.90;7.05;;;6.40;89.40;;;;;;4989923;28;20415;-65
2021/04/04 21:10:28;;;;;;;12.77;8.43;;;6.40;89.50;;;;;;4990119;28;20042;-66
2021/04/04 21:12:55;;;;;;;17.92;8.82;;;6.30;89.60;;;;;;4988109;28;20132;-66
2021/04/04 21:15:21;;;;;;;14.02;9.95;;;6.30;89.90;;;;;;4988808;28;20865;-67
2021/04/04 21:17:46;;;;;;;14.43;8.57;;;6.30;89.90;;;;;;4989495;28;20101;-67
2021/04/04 21:20:12;;;;;;;13.57;8.45;;;6.30;90.00;;;;;;4987951;28;20073;-66
2021/04/04 21:22:39;;;;;;;21.35;13.98;;;6.30;90.00;;;;;;4989925;28;20030;-65
2021/04/04 21:25:11;;;;;;;25.42;16.90;;;6.30;90.10;;;;;;4987452;28;20057;-65
2021/04/04 21:27:37;;;;;;;17.02;11.63;;;6.30;90.20;;;;;;4989447;28;20026;-67
